createdAt,value
2022-11-27T00:00:04.973Z,45.93
2022-11-27T00:02:42.662Z,40.03
2022-11-27T00:05:13.089Z,52.67
2022-11-27T00:07:43.381Z,52.53
2022-11-27T00:10:14.881Z,55.00
2022-11-27T00:12:47.563Z,55.07
2022-11-27T00:15:18.758Z,51.60
2022-11-27T00:17:48.743Z,56.97
2022-11-27T00:20:18.989Z,50.50
2022-11-27T00:22:48.974Z,50.00
2022-11-27T00:25:19.228Z,50.57
2022-11-27T00:27:51.835Z,57.47
2022-11-27T00:30:22.309Z,123.57
2022-11-27T00:32:52.287Z,132.97
2022-11-27T00:35:22.333Z,115.13
2022-11-27T00:37:52.379Z,93.20
2022-11-27T00:40:22.641Z,53.60
2022-11-27T00:42:55.296Z,45.40
2022-11-27T00:45:25.708Z,49.70
2022-11-27T00:47:56.128Z,48.13
2022-11-27T00:50:26.219Z,57.80
2022-11-27T00:52:56.259Z,35.07
2022-11-27T00:55:26.268Z,44.77
2022-11-27T00:57:58.785Z,41.80
2022-11-27T01:00:29.286Z,41.90
2022-11-27T01:02:59.427Z,41.47
2022-11-27T01:05:29.500Z,38.30
2022-11-27T01:07:59.526Z,28.27
2022-11-27T01:10:29.661Z,44.83
2022-11-27T01:13:02.248Z,43.60
2022-11-27T01:15:32.484Z,42.03
2022-11-27T01:18:02.539Z,51.03
2022-11-27T01:20:32.631Z,40.77
2022-11-27T01:23:02.680Z,55.07
2022-11-27T01:25:32.675Z,40.77
2022-11-27T01:28:05.633Z,51.30
2022-11-27T01:30:35.637Z,79.77
2022-11-27T01:33:05.620Z,47.13
2022-11-27T01:35:36.261Z,67.50
2022-11-27T01:38:06.665Z,45.67
2022-11-27T01:40:36.712Z,39.97
2022-11-27T01:43:17.088Z,42.60
2022-11-27T01:45:48.077Z,37.20
2022-11-27T01:48:18.127Z,38.07
2022-11-27T01:50:48.133Z,51.60
2022-11-27T01:53:22.178Z,38.57
2022-11-27T01:55:58.758Z,40.80
2022-11-27T01:58:33.904Z,32.17
2022-11-27T02:01:04.542Z,41.43
2022-11-27T02:03:36.380Z,37.70
2022-11-27T02:06:06.892Z,28.47
2022-11-27T02:08:36.925Z,33.27
2022-11-27T02:11:16.792Z,26.20
2022-11-27T02:13:59.411Z,26.97
2022-11-27T02:16:40.072Z,25.83
2022-11-27T02:19:28.252Z,25.90
2022-11-27T02:22:18.573Z,37.03
2022-11-27T02:24:59.467Z,25.40
2022-11-27T02:28:00.863Z,26.20
2022-11-27T02:30:40.771Z,27.50
2022-11-27T02:33:17.304Z,28.53
2022-11-27T02:35:57.548Z,36.30
2022-11-27T02:38:35.387Z,27.33
2022-11-27T02:41:13.594Z,30.00
2022-11-27T02:43:48.332Z,36.60
2022-11-27T02:46:23.502Z,27.63
2022-11-27T02:48:59.827Z,27.73
2022-11-27T02:51:39.163Z,26.87
2022-11-27T02:54:16.613Z,29.13
2022-11-27T02:56:49.787Z,26.60
2022-11-27T02:59:22.605Z,37.20
2022-11-27T03:02:03.027Z,36.40
2022-11-27T03:04:40.664Z,41.33
2022-11-27T03:07:17.448Z,37.07
2022-11-27T03:09:52.717Z,40.70
2022-11-27T03:12:23.056Z,40.37
2022-11-27T03:14:53.160Z,31.60
2022-11-27T03:17:51.591Z,37.63
2022-11-27T03:20:28.393Z,35.13
2022-11-27T03:22:59.357Z,28.70
2022-11-27T03:25:29.423Z,35.90
2022-11-27T03:28:05.586Z,30.40
2022-11-27T03:30:35.728Z,26.90
2022-11-27T03:33:08.327Z,37.23
2022-11-27T03:35:38.467Z,38.67
2022-11-27T03:38:08.977Z,29.03
2022-11-27T03:40:51.700Z,39.53
2022-11-27T03:43:28.424Z,37.77
2022-11-27T03:46:04.029Z,30.57
2022-11-27T03:48:45.245Z,36.80
2022-11-27T03:51:23.933Z,37.63
2022-11-27T03:54:06.725Z,33.03
2022-11-27T03:56:44.501Z,38.10
2022-11-27T03:59:22.926Z,64.77
2022-11-27T04:01:53.103Z,83.70
2022-11-27T04:04:25.753Z,72.70
2022-11-27T04:06:55.762Z,133.50
2022-11-27T04:09:26.074Z,82.07
2022-11-27T04:11:56.124Z,37.43
2022-11-27T04:14:26.137Z,33.57
2022-11-27T04:16:56.133Z,36.43
2022-11-27T04:19:28.737Z,31.43
2022-11-27T04:21:58.918Z,38.50
2022-11-27T04:24:28.921Z,32.37
2022-11-27T04:26:58.927Z,39.80
2022-11-27T04:29:29.009Z,44.60
2022-11-27T04:31:59.060Z,38.03
2022-11-27T04:34:31.791Z,48.93
2022-11-27T04:37:02.113Z,193.70
2022-11-27T04:39:32.179Z,171.87
2022-11-27T04:42:02.211Z,60.50
2022-11-27T04:44:32.187Z,177.30
2022-11-27T04:47:02.816Z,86.67
2022-11-27T04:49:35.601Z,115.63
2022-11-27T04:52:06.272Z,120.30
2022-11-27T04:54:36.388Z,113.63
2022-11-27T04:57:06.566Z,92.20
2022-11-27T04:59:36.628Z,117.13
2022-11-27T05:02:06.824Z,66.10
2022-11-27T05:04:39.807Z,48.73
2022-11-27T05:07:10.185Z,47.10
2022-11-27T05:09:40.363Z,75.60
2022-11-27T05:12:10.653Z,91.87
2022-11-27T05:14:40.830Z,141.27
2022-11-27T05:17:12.750Z,38.33
2022-11-27T05:19:45.636Z,41.93
2022-11-27T05:22:15.648Z,36.20
2022-11-27T05:24:45.753Z,25.90
2022-11-27T05:27:15.950Z,29.53
2022-11-27T05:29:46.080Z,40.50
2022-11-27T05:32:16.080Z,22.83
2022-11-27T05:34:49.656Z,38.27
2022-11-27T05:37:20.250Z,24.60
2022-11-27T05:39:50.284Z,27.80
2022-11-27T05:42:20.303Z,25.47
2022-11-27T05:44:55.244Z,24.67
2022-11-27T05:47:28.092Z,30.23
2022-11-27T05:50:00.790Z,22.13
2022-11-27T05:52:30.830Z,22.30
2022-11-27T05:55:00.873Z,21.67
2022-11-27T05:57:31.047Z,21.97
2022-11-27T06:00:01.457Z,18.77
2022-11-27T06:02:32.882Z,19.90
2022-11-27T06:05:05.821Z,20.57
2022-11-27T06:07:35.935Z,21.60
2022-11-27T06:10:06.576Z,20.63
2022-11-27T06:12:36.610Z,21.83
2022-11-27T06:15:07.755Z,21.90
2022-11-27T06:17:37.755Z,22.60
2022-11-27T06:20:12.189Z,20.90
2022-11-27T06:22:42.440Z,21.47
2022-11-27T06:25:13.050Z,24.90
2022-11-27T06:27:43.121Z,21.10
2022-11-27T06:30:15.174Z,17.53
2022-11-27T06:32:45.209Z,22.27
2022-11-27T06:35:18.016Z,21.73
2022-11-27T06:37:48.018Z,24.70
2022-11-27T06:40:18.295Z,22.50
2022-11-27T06:42:48.329Z,20.60
2022-11-27T06:45:18.635Z,25.10
2022-11-27T06:47:48.648Z,18.27
2022-11-27T06:50:21.729Z,20.53
2022-11-27T06:52:51.756Z,20.37
2022-11-27T06:55:21.765Z,15.80
2022-11-27T06:57:53.768Z,18.50
2022-11-27T07:00:24.185Z,28.60
2022-11-27T07:02:57.624Z,23.73
2022-11-27T07:05:30.380Z,22.03
2022-11-27T07:08:02.175Z,24.43
2022-11-27T07:10:32.230Z,20.50
2022-11-27T07:13:02.270Z,37.53
2022-11-27T07:15:32.621Z,31.23
2022-11-27T07:18:02.624Z,38.10
2022-11-27T07:20:35.847Z,55.73
2022-11-27T07:23:05.980Z,52.37
2022-11-27T07:25:36.028Z,109.13
2022-11-27T07:28:06.021Z,34.37
2022-11-27T07:30:36.483Z,52.80
2022-11-27T07:33:07.117Z,30.87
2022-11-27T07:35:39.724Z,36.30
2022-11-27T07:38:09.772Z,29.23
2022-11-27T07:40:41.323Z,21.77
2022-11-27T07:43:11.380Z,21.83
2022-11-27T07:45:41.449Z,24.10
2022-11-27T07:48:11.554Z,20.80
2022-11-27T07:50:45.186Z,27.77
2022-11-27T07:53:15.326Z,31.70
2022-11-27T07:55:45.799Z,33.93
2022-11-27T07:58:15.899Z,39.90
2022-11-27T08:00:45.967Z,40.80
2022-11-27T08:03:16.702Z,64.43
2022-11-27T08:05:49.325Z,56.53
2022-11-27T08:08:19.377Z,94.83
2022-11-27T08:10:49.372Z,114.73
2022-11-27T08:13:19.419Z,123.57
2022-11-27T08:15:49.528Z,42.40
2022-11-27T08:18:19.770Z,172.40
2022-11-27T08:20:52.364Z,67.57
2022-11-27T08:23:22.362Z,70.70
2022-11-27T08:25:52.437Z,119.33
2022-11-27T08:28:22.517Z,125.23
2022-11-27T08:31:00.137Z,133.57
2022-11-27T08:33:30.398Z,37.63
2022-11-27T08:36:03.393Z,73.60
2022-11-27T08:38:33.603Z,112.10
2022-11-27T08:41:06.779Z,64.40
2022-11-27T08:43:37.873Z,143.13
2022-11-27T08:46:09.927Z,65.43
2022-11-27T08:48:40.400Z,85.37
2022-11-27T08:51:16.284Z,142.90
2022-11-27T08:53:46.857Z,65.60
2022-11-27T08:56:20.307Z,39.83
2022-11-27T08:58:51.092Z,60.90
2022-11-27T09:01:24.793Z,70.83
2022-11-27T09:03:55.270Z,32.47
2022-11-27T09:06:31.256Z,88.03
2022-11-27T09:09:03.970Z,47.53
2022-11-27T09:11:35.813Z,47.83
2022-11-27T09:14:08.779Z,91.97
2022-11-27T09:16:39.234Z,37.17
2022-11-27T09:19:09.280Z,57.47
2022-11-27T09:21:42.010Z,28.50
2022-11-27T09:24:12.581Z,53.40
2022-11-27T09:26:44.768Z,31.50
2022-11-27T09:29:14.941Z,34.97
2022-11-27T09:31:45.215Z,45.23
2022-11-27T09:34:15.503Z,52.17
2022-11-27T09:36:48.713Z,34.40
2022-11-27T09:39:19.593Z,25.47
2022-11-27T09:41:54.115Z,31.33
2022-11-27T09:44:36.781Z,29.80
2022-11-27T09:47:17.830Z,27.57
2022-11-27T09:49:53.607Z,24.70
2022-11-27T09:52:37.661Z,28.97
2022-11-27T09:55:20.497Z,26.27
2022-11-27T09:58:04.740Z,17.53
2022-11-27T10:00:35.008Z,25.37
2022-11-27T10:03:05.304Z,30.03
2022-11-27T10:05:45.514Z,31.13
2022-11-27T10:08:38.067Z,24.63
2022-11-27T10:11:25.526Z,24.13
2022-11-27T10:14:13.590Z,25.50
2022-11-27T10:16:52.004Z,27.40
2022-11-27T10:19:39.623Z,28.77
2022-11-27T10:22:21.177Z,28.23
2022-11-27T10:25:10.092Z,20.57
2022-11-27T10:27:48.080Z,19.67
2022-11-27T10:30:22.291Z,29.90
2022-11-27T10:32:58.355Z,20.37
2022-11-27T10:35:31.781Z,24.30
2022-11-27T10:38:07.342Z,20.87
2022-11-27T10:40:46.740Z,27.70
2022-11-27T10:43:22.745Z,20.27
2022-11-27T10:45:56.979Z,26.03
2022-11-27T10:48:27.852Z,28.50
2022-11-27T10:50:59.092Z,22.47
2022-11-27T10:53:33.319Z,27.60
2022-11-27T10:56:39.436Z,26.67
2022-11-27T10:59:15.541Z,28.53
2022-11-27T11:01:50.079Z,27.20
2022-11-27T11:04:38.756Z,27.90
2022-11-27T11:07:28.688Z,28.07
2022-11-27T11:09:59.768Z,22.90
2022-11-27T11:12:33.219Z,24.53
2022-11-27T11:15:04.919Z,23.27
2022-11-27T11:17:37.892Z,29.97
2022-11-27T11:20:21.832Z,27.40
2022-11-27T11:22:52.561Z,26.67
2022-11-27T11:25:24.710Z,29.80
2022-11-27T11:27:58.231Z,35.10
2022-11-27T11:30:34.758Z,31.13
2022-11-27T11:33:07.530Z,31.17
2022-11-27T11:35:39.961Z,33.70
2022-11-27T11:38:21.347Z,30.00
2022-11-27T11:41:03.475Z,24.37
2022-11-27T11:43:39.353Z,26.43
2022-11-27T11:46:22.870Z,28.27
2022-11-27T11:49:03.738Z,26.60
2022-11-27T11:52:07.587Z,34.43
2022-11-27T11:55:02.816Z,32.40
2022-11-27T11:57:59.248Z,27.23
2022-11-27T12:01:04.685Z,28.20
2022-11-27T12:03:51.204Z,29.50
2022-11-27T12:06:51.418Z,32.27
2022-11-27T12:09:55.178Z,30.33
2022-11-27T12:12:48.918Z,27.60
2022-11-27T12:15:32.950Z,37.13
2022-11-27T12:18:07.775Z,33.47
2022-11-27T12:20:57.849Z,36.97
2022-11-27T12:23:59.519Z,33.17
2022-11-27T12:26:48.814Z,32.10
2022-11-27T12:29:42.423Z,34.10
2022-11-27T12:32:37.661Z,30.70
2022-11-27T12:35:33.310Z,28.23
2022-11-27T12:38:38.796Z,60.90
2022-11-27T12:41:49.754Z,33.90
2022-11-27T12:44:31.052Z,76.13
2022-11-27T12:47:08.512Z,40.33
2022-11-27T12:49:47.740Z,47.57
2022-11-27T12:52:24.021Z,92.37
2022-11-27T12:55:04.795Z,28.00
2022-11-27T12:57:43.590Z,25.77
2022-11-27T13:00:20.677Z,25.57
2022-11-27T13:03:05.463Z,26.00
2022-11-27T13:05:45.768Z,31.03
2022-11-27T13:08:23.571Z,130.07
2022-11-27T13:10:59.393Z,31.00
2022-11-27T13:13:37.074Z,33.00
2022-11-27T13:16:15.565Z,17.00
2022-11-27T13:18:53.922Z,16.83
2022-11-27T13:21:31.927Z,27.27
2022-11-27T13:24:05.290Z,36.03
2022-11-27T13:26:43.688Z,28.90
2022-11-27T13:29:24.814Z,24.00
2022-11-27T13:32:01.732Z,25.27
2022-11-27T13:34:37.394Z,25.03
2022-11-27T13:37:12.396Z,32.63
2022-11-27T13:39:45.386Z,29.90
2022-11-27T13:42:24.276Z,46.20
2022-11-27T13:45:01.148Z,60.73
2022-11-27T13:47:38.806Z,94.63
2022-11-27T13:50:14.324Z,106.77
2022-11-27T13:53:00.182Z,33.77
2022-11-27T13:55:33.257Z,24.63
2022-11-27T13:58:05.272Z,40.67
2022-11-27T14:00:39.917Z,24.83
2022-11-27T14:03:23.534Z,22.70
2022-11-27T14:05:53.836Z,44.63
2022-11-27T14:08:30.059Z,39.37
2022-11-27T14:11:06.195Z,40.93
2022-11-27T14:13:43.105Z,40.83
2022-11-27T14:16:30.534Z,36.60
2022-11-27T14:19:03.872Z,25.17
2022-11-27T14:21:44.211Z,95.40
2022-11-27T14:24:41.473Z,104.70
2022-11-27T14:27:21.432Z,25.00
2022-11-27T14:29:52.860Z,31.87
2022-11-27T14:32:24.361Z,28.73
2022-11-27T14:34:54.535Z,50.10
2022-11-27T14:37:27.953Z,42.43
2022-11-27T14:40:00.576Z,39.03
2022-11-27T14:42:36.457Z,26.30
2022-11-27T14:45:15.464Z,17.13
2022-11-27T14:47:52.349Z,28.27
2022-11-27T14:50:26.245Z,13.20
2022-11-27T14:53:00.117Z,14.93
2022-11-27T14:55:34.837Z,13.10
2022-11-27T14:58:05.696Z,22.60
2022-11-27T15:00:35.955Z,22.90
2022-11-27T15:03:12.727Z,17.63
2022-11-27T15:05:42.969Z,15.10
2022-11-27T15:08:14.034Z,21.07
2022-11-27T15:10:46.805Z,28.90
2022-11-27T15:13:26.740Z,28.03
2022-11-27T15:16:03.690Z,29.53
2022-11-27T15:18:38.856Z,20.60
2022-11-27T15:21:14.733Z,19.90
2022-11-27T15:23:50.033Z,23.13
2022-11-27T15:26:36.527Z,26.47
2022-11-27T15:29:07.546Z,18.20
2022-11-27T15:31:40.125Z,17.77
2022-11-27T15:34:27.232Z,17.33
2022-11-27T15:37:01.718Z,19.43
2022-11-27T15:39:40.914Z,19.17
2022-11-27T15:42:14.764Z,18.97
2022-11-27T15:44:44.998Z,17.47
2022-11-27T15:47:26.934Z,24.60
2022-11-27T15:49:57.690Z,21.30
2022-11-27T15:52:28.366Z,20.37
2022-11-27T15:54:59.456Z,23.13
2022-11-27T15:57:32.047Z,25.53
2022-11-27T16:00:04.118Z,20.13
2022-11-27T16:02:44.622Z,28.30
2022-11-27T16:05:15.297Z,29.00
2022-11-27T16:07:45.672Z,25.87
2022-11-27T16:10:16.369Z,22.13
2022-11-27T16:12:49.039Z,27.53
2022-11-27T16:15:22.634Z,31.60
2022-11-27T16:17:54.111Z,28.03
2022-11-27T16:20:24.405Z,25.10
2022-11-27T16:22:55.182Z,22.73
2022-11-27T16:25:25.494Z,30.47
2022-11-27T16:28:02.430Z,22.17
2022-11-27T16:30:33.332Z,19.07
2022-11-27T16:33:03.369Z,18.80
2022-11-27T16:35:33.912Z,19.97
2022-11-27T16:38:04.041Z,21.60
2022-11-27T16:40:34.925Z,25.30
2022-11-27T16:43:08.342Z,24.00
2022-11-27T16:45:40.649Z,27.10
2022-11-27T16:48:11.756Z,30.30
2022-11-27T16:50:41.819Z,30.43
2022-11-27T16:53:12.832Z,30.10
2022-11-27T16:55:43.648Z,33.37
2022-11-27T16:58:16.423Z,24.67
2022-11-27T17:00:46.488Z,32.03
2022-11-27T17:03:16.725Z,22.00
2022-11-27T17:05:51.288Z,22.13
2022-11-27T17:08:21.621Z,20.83
2022-11-27T17:10:51.694Z,21.00
2022-11-27T17:13:25.546Z,20.97
2022-11-27T17:15:56.472Z,18.27
2022-11-27T17:18:26.665Z,24.70
2022-11-27T17:21:02.357Z,16.50
2022-11-27T17:23:33.141Z,20.50
2022-11-27T17:26:09.824Z,17.47
2022-11-27T17:28:42.965Z,23.60
2022-11-27T17:31:14.509Z,19.80
2022-11-27T17:33:44.725Z,20.00
2022-11-27T17:36:15.661Z,18.53
2022-11-27T17:38:46.779Z,20.00
2022-11-27T17:41:18.345Z,20.67
2022-11-27T17:43:51.961Z,20.93
2022-11-27T17:46:26.263Z,20.37
2022-11-27T17:48:59.078Z,20.27
2022-11-27T17:51:30.008Z,16.73
2022-11-27T17:54:02.857Z,17.60
2022-11-27T17:56:36.534Z,18.20
2022-11-27T17:59:10.381Z,19.30
2022-11-27T18:01:41.584Z,21.70
2022-11-27T18:04:11.818Z,20.20
2022-11-27T18:06:42.481Z,20.53
2022-11-27T18:09:12.888Z,22.67
2022-11-27T18:11:43.916Z,24.43
2022-11-27T18:14:17.824Z,26.80
2022-11-27T18:16:48.195Z,25.47
2022-11-27T18:19:18.397Z,21.33
2022-11-27T18:21:48.512Z,25.77
2022-11-27T18:24:23.544Z,25.40
2022-11-27T18:27:10.349Z,18.17
2022-11-27T18:29:45.548Z,20.30
2022-11-27T18:32:18.676Z,19.13
2022-11-27T18:34:49.217Z,22.63
2022-11-27T18:37:19.280Z,21.50
2022-11-27T18:39:50.615Z,15.57
2022-11-27T18:42:20.703Z,18.93
2022-11-27T18:44:53.316Z,15.10
2022-11-27T18:47:23.739Z,19.00
2022-11-27T18:49:55.746Z,17.80
2022-11-27T18:52:25.771Z,16.90
2022-11-27T18:54:56.225Z,16.10
2022-11-27T18:57:26.306Z,14.97
2022-11-27T19:00:00.929Z,15.00
2022-11-27T19:02:32.331Z,17.83
2022-11-27T19:05:03.069Z,24.20
2022-11-27T19:07:33.164Z,22.20
2022-11-27T19:10:03.293Z,20.23
2022-11-27T19:12:33.969Z,22.87
2022-11-27T19:15:08.882Z,21.87
2022-11-27T19:17:39.152Z,16.07
2022-11-27T19:20:11.671Z,18.70
2022-11-27T19:22:41.750Z,20.87
2022-11-27T19:25:12.737Z,16.20
2022-11-27T19:27:42.761Z,18.30
2022-11-27T19:30:16.884Z,20.40
2022-11-27T19:32:48.146Z,26.03
2022-11-27T19:35:22.176Z,23.23
2022-11-27T19:37:52.676Z,20.77
2022-11-27T19:40:24.505Z,19.83
2022-11-27T19:42:59.534Z,17.90
2022-11-27T19:45:33.848Z,18.13
2022-11-27T19:48:04.252Z,17.43
2022-11-27T19:50:35.449Z,16.63
2022-11-27T19:53:07.285Z,18.87
2022-11-27T19:55:37.635Z,14.80
2022-11-27T19:58:07.756Z,14.00
2022-11-27T20:00:40.512Z,18.03
2022-11-27T20:03:10.621Z,18.43
2022-11-27T20:05:40.778Z,18.43
2022-11-27T20:08:11.299Z,17.07
2022-11-27T20:10:42.152Z,15.10
2022-11-27T20:13:12.567Z,17.30
2022-11-27T20:15:45.136Z,16.20
2022-11-27T20:18:17.408Z,12.97
2022-11-27T20:20:47.789Z,13.00
2022-11-27T20:23:18.444Z,16.70
2022-11-27T20:25:50.582Z,15.27
2022-11-27T20:28:20.901Z,19.63
2022-11-27T20:30:59.875Z,15.10
2022-11-27T20:33:30.257Z,14.67
2022-11-27T20:36:02.298Z,15.27
2022-11-27T20:38:32.453Z,15.30
2022-11-27T20:41:02.685Z,17.07
2022-11-27T20:43:32.812Z,21.90
2022-11-27T20:46:05.797Z,20.07
2022-11-27T20:48:36.883Z,28.67
2022-11-27T20:51:13.768Z,33.43
2022-11-27T20:53:46.051Z,21.13
2022-11-27T20:56:20.580Z,17.20
2022-11-27T20:58:51.987Z,22.10
2022-11-27T21:01:27.201Z,22.67
2022-11-27T21:03:59.097Z,18.97
2022-11-27T21:06:31.748Z,22.30
2022-11-27T21:09:04.429Z,19.20
2022-11-27T21:11:35.742Z,17.53
2022-11-27T21:14:09.661Z,17.87
2022-11-27T21:16:46.940Z,20.13
2022-11-27T21:19:20.830Z,20.73
2022-11-27T21:21:54.196Z,23.00
2022-11-27T21:24:28.744Z,23.40
2022-11-27T21:26:59.412Z,16.60
2022-11-27T21:29:30.807Z,17.30
2022-11-27T21:32:04.030Z,15.13
2022-11-27T21:34:34.116Z,14.10
2022-11-27T21:37:04.256Z,15.83
2022-11-27T21:39:34.447Z,18.90
2022-11-27T21:42:06.739Z,15.50
2022-11-27T21:44:41.338Z,15.30
2022-11-27T21:47:14.325Z,10.83
2022-11-27T21:49:44.765Z,12.40
2022-11-27T21:52:16.257Z,13.43
2022-11-27T21:54:46.357Z,14.20
2022-11-27T21:57:18.718Z,10.87
2022-11-27T21:59:48.718Z,18.70
2022-11-27T22:02:21.616Z,17.00
2022-11-27T22:04:51.645Z,13.93
2022-11-27T22:07:21.683Z,15.30
2022-11-27T22:09:51.709Z,14.90
2022-11-27T22:12:21.762Z,13.30
2022-11-27T22:14:52.902Z,14.90
2022-11-27T22:17:25.873Z,21.63
2022-11-27T22:19:56.548Z,17.07
2022-11-27T22:22:26.952Z,17.43
2022-11-27T22:24:57.061Z,17.50
2022-11-27T22:27:27.133Z,19.07
2022-11-27T22:29:57.258Z,16.67
2022-11-27T22:32:29.932Z,15.67
2022-11-27T22:35:01.088Z,12.60
2022-11-27T22:37:31.186Z,16.23
2022-11-27T22:40:01.661Z,12.07
2022-11-27T22:42:31.732Z,12.27
2022-11-27T22:45:01.764Z,12.40
2022-11-27T22:47:34.701Z,16.03
2022-11-27T22:50:05.030Z,12.47
2022-11-27T22:52:35.343Z,13.73
2022-11-27T22:55:06.087Z,12.40
2022-11-27T22:57:36.947Z,13.37
2022-11-27T23:00:11.488Z,16.90
2022-11-27T23:02:44.151Z,13.00
2022-11-27T23:05:14.233Z,13.07
2022-11-27T23:07:44.599Z,16.53
2022-11-27T23:10:15.385Z,15.40
2022-11-27T23:12:45.652Z,12.60
2022-11-27T23:15:15.776Z,9.80
2022-11-27T23:17:48.430Z,10.10
2022-11-27T23:20:18.668Z,10.70
2022-11-27T23:22:48.699Z,12.37
2022-11-27T23:25:19.002Z,13.83
2022-11-27T23:27:49.100Z,12.83
2022-11-27T23:30:20.059Z,13.53
2022-11-27T23:32:52.770Z,11.17
2022-11-27T23:35:22.849Z,13.23
2022-11-27T23:37:53.155Z,14.40
2022-11-27T23:40:23.636Z,15.03
2022-11-27T23:42:54.004Z,14.23
2022-11-27T23:45:23.999Z,11.77
2022-11-27T23:47:56.644Z,13.70
2022-11-27T23:50:26.689Z,10.67
2022-11-27T23:52:57.386Z,13.97
2022-11-27T23:55:27.478Z,15.47
2022-11-27T23:57:57.612Z,13.33
